Time;durP1;ratioP1;P1;durP2;ratioP2;P2;SDS_P1;SDS_P2;PMS_P1;PMS_P2;Temp;Humidity;BMP_temperature;BMP_pressure;BME280_temperature;BME280_humidity;BME280_pressure;Samples;Min_cycle;Max_cycle;Signal;HPM_P1;HPM_P2
2021/08/02 00:01:31;;;;;;;5.97;4.97;;;28.90;47.70;;;;;;4324745;33;20543;-36
2021/08/02 00:04:07;;;;;;;7.53;5.12;;;28.80;47.60;;;;;;4328873;32;20081;-37
2021/08/02 00:06:49;;;;;;;6.25;5.57;;;28.80;47.60;;;;;;4346280;32;20119;-38
2021/08/02 00:09:21;;;;;;;8.05;6.28;;;28.80;47.60;;;;;;4359760;32;20072;-37
2021/08/02 00:11:59;;;;;;;5.62;5.12;;;28.80;47.50;;;;;;4360305;32;20089;-37
2021/08/02 00:14:26;;;;;;;7.68;5.28;;;28.80;47.30;;;;;;4334678;32;20066;-36
2021/08/02 00:16:53;;;;;;;11.07;5.53;;;28.70;47.10;;;;;;4345909;32;20050;-36
2021/08/02 00:19:19;;;;;;;10.85;5.43;;;28.70;47.20;;;;;;4345989;32;20078;-37
2021/08/02 00:21:46;;;;;;;9.95;5.35;;;28.70;47.20;;;;;;4360113;32;20071;-36
2021/08/02 00:24:13;;;;;;;7.10;5.00;;;28.60;47.00;;;;;;4359751;32;20062;-37
2021/08/02 00:26:40;;;;;;;8.52;5.18;;;28.50;47.20;;;;;;4359968;32;20058;-37
2021/08/02 00:29:07;;;;;;;9.82;5.03;;;28.50;47.50;;;;;;4333461;32;20070;-37
2021/08/02 00:31:34;;;;;;;7.25;6.05;;;28.40;47.90;;;;;;4345601;32;20558;-37
2021/08/02 00:34:00;;;;;;;6.60;5.43;;;28.40;48.40;;;;;;4359590;32;20071;-37
2021/08/02 00:36:44;;;;;;;7.07;5.60;;;28.30;48.90;;;;;;4359744;32;20208;-38
2021/08/02 00:39:40;;;;;;;11.18;5.78;;;28.20;49.40;;;;;;4345847;32;20078;-38
2021/08/02 00:42:22;;;;;;;15.35;6.57;;;28.20;49.80;;;;;;4359090;32;20078;-37
2021/08/02 00:45:03;;;;;;;10.43;5.65;;;28.20;49.70;;;;;;4359191;32;20116;-37
2021/08/02 00:47:58;;;;;;;6.55;5.78;;;28.20;50.00;;;;;;4359268;32;20078;-36
2021/08/02 00:50:28;;;;;;;9.70;5.90;;;28.20;50.20;;;;;;4348267;32;20143;-37
2021/08/02 00:53:07;;;;;;;6.75;5.43;;;28.20;50.20;;;;;;4359329;32;20066;-37
2021/08/02 00:55:37;;;;;;;8.15;5.22;;;28.20;50.20;;;;;;4359249;32;20547;-37
2021/08/02 00:58:07;;;;;;;10.45;5.70;;;28.20;50.20;;;;;;4359628;32;20078;-37
2021/08/02 01:00:34;;;;;;;7.53;5.28;;;28.20;50.20;;;;;;4358883;32;20093;-36
2021/08/02 01:03:09;;;;;;;11.52;5.95;;;28.20;50.00;;;;;;4359218;32;20138;-38
2021/08/02 01:05:37;;;;;;;5.97;5.15;;;28.20;50.50;;;;;;4359225;32;20574;-37
2021/08/02 01:08:13;;;;;;;8.07;5.22;;;28.20;49.90;;;;;;4358727;32;20075;-37
2021/08/02 01:10:49;;;;;;;12.93;6.12;;;28.30;49.80;;;;;;4359221;32;20089;-38
2021/08/02 01:13:16;;;;;;;8.50;5.95;;;28.20;50.30;;;;;;4321480;32;20170;-37
2021/08/02 01:15:52;;;;;;;13.02;6.50;;;28.20;50.30;;;;;;4341645;33;20075;-37
2021/08/02 01:18:21;;;;;;;18.15;6.60;;;28.30;50.70;;;;;;4329287;33;20125;-37
2021/08/02 01:20:50;;;;;;;11.27;5.78;;;28.20;50.60;;;;;;4341707;33;20090;-38
2021/08/02 01:23:17;;;;;;;8.05;5.65;;;28.30;50.40;;;;;;4341709;33;20074;-36
2021/08/02 01:25:43;;;;;;;9.05;5.78;;;28.30;50.60;;;;;;4341649;33;20622;-38
2021/08/02 01:28:15;;;;;;;16.50;6.12;;;28.30;50.20;;;;;;4341609;33;20162;-39
2021/08/02 01:30:45;;;;;;;13.52;6.65;;;28.40;50.20;;;;;;4341272;33;20051;-37
2021/08/02 01:33:13;;;;;;;16.00;5.95;;;28.40;50.90;;;;;;4329221;33;20078;-38
2021/08/02 01:35:40;;;;;;;9.57;5.90;;;28.40;51.50;;;;;;4328980;33;20067;-38
2021/08/02 01:38:06;;;;;;;12.82;5.93;;;28.40;52.00;;;;;;4341156;33;20124;-38
2021/08/02 01:40:33;;;;;;;10.25;6.90;;;28.40;52.10;;;;;;4329377;33;20078;-38
2021/08/02 01:43:05;;;;;;;7.55;5.28;;;28.40;52.10;;;;;;4341238;33;20609;-38
2021/08/02 01:46:10;;;;;;;9.15;6.18;;;28.40;52.10;;;;;;4341645;32;20202;-38
2021/08/02 01:49:15;;;;;;;7.43;5.32;;;28.50;52.10;;;;;;4358589;32;20243;-37
2021/08/02 01:51:47;;;;;;;11.00;6.00;;;28.70;51.90;;;;;;4358690;32;20528;-37
2021/08/02 01:54:49;;;;;;;8.25;5.65;;;28.80;51.60;;;;;;4344269;32;20073;-38
2021/08/02 01:57:27;;;;;;;8.13;5.18;;;28.90;52.10;;;;;;4346372;32;20079;-37
2021/08/02 02:00:08;;;;;;;13.57;5.10;;;29.00;51.20;;;;;;4342319;33;20073;-38
2021/08/02 02:02:35;;;;;;;8.45;5.40;;;29.10;51.20;;;;;;4343478;32;20478;-37
2021/08/02 02:05:05;;;;;;;8.05;5.15;;;29.20;51.00;;;;;;4313439;33;20642;-38
2021/08/02 02:07:38;;;;;;;8.98;5.50;;;29.30;50.90;;;;;;4326280;33;20081;-38
2021/08/02 02:10:05;;;;;;;14.20;5.05;;;29.40;50.60;;;;;;4302605;33;20070;-38
2021/08/02 02:12:32;;;;;;;11.93;5.07;;;29.60;50.20;;;;;;4302140;33;20109;-38
2021/08/02 02:14:58;;;;;;;8.52;5.10;;;29.70;49.90;;;;;;4313972;33;20075;-37
2021/08/02 02:17:25;;;;;;;9.65;4.25;;;29.80;50.50;;;;;;4302159;33;20150;-37
2021/08/02 02:19:52;;;;;;;14.77;5.10;;;29.90;49.60;;;;;;4314348;33;20162;-37
2021/08/02 02:22:19;;;;;;;8.80;4.72;;;30.00;49.50;;;;;;4313896;33;20503;-38
2021/08/02 02:24:46;;;;;;;10.75;4.68;;;30.10;49.40;;;;;;4301868;33;20160;-38
2021/08/02 02:27:13;;;;;;;6.15;4.90;;;30.30;49.20;;;;;;4313826;33;20082;-38
2021/08/02 02:29:39;;;;;;;6.53;4.35;;;30.40;48.90;;;;;;4326067;33;20432;-37
2021/08/02 02:32:06;;;;;;;10.18;5.07;;;30.60;48.60;;;;;;4301370;33;20157;-38
2021/08/02 02:34:35;;;;;;;5.75;3.58;;;30.90;48.00;;;;;;4314043;33;20160;-36
2021/08/02 02:37:01;;;;;;;6.50;3.75;;;31.30;47.40;;;;;;4302079;33;20193;-37
2021/08/02 02:39:28;;;;;;;7.18;4.55;;;31.60;46.80;;;;;;4326068;33;20214;-38
2021/08/02 02:41:54;;;;;;;6.40;4.20;;;32.10;46.20;;;;;;4318997;33;20583;-38
2021/08/02 02:44:21;;;;;;;7.32;4.20;;;32.50;44.80;;;;;;4341299;33;20074;-38
2021/08/02 02:46:47;;;;;;;4.78;3.60;;;32.90;43.40;;;;;;4342028;33;20059;-41
2021/08/02 02:49:14;;;;;;;5.03;3.90;;;33.30;42.10;;;;;;4341320;32;20522;-37
2021/08/02 02:51:40;;;;;;;18.67;14.82;;;33.70;40.80;;;;;;4335534;33;20567;-37
2021/08/02 02:54:07;;;;;;;8.27;4.65;;;34.10;40.30;;;;;;4326713;33;20094;-37
2021/08/02 02:56:33;;;;;;;7.43;3.78;;;34.40;39.60;;;;;;4314845;33;20151;-37
2021/08/02 02:59:00;;;;;;;10.35;4.47;;;34.70;39.20;;;;;;4331685;33;20074;-36
2021/08/02 03:01:35;;;;;;;8.77;3.53;;;35.00;38.70;;;;;;4341750;33;20519;-37
2021/08/02 03:04:01;;;;;;;8.38;4.37;;;35.30;38.50;;;;;;4342844;32;20148;-37
2021/08/02 03:06:28;;;;;;;6.32;4.32;;;35.60;38.10;;;;;;4331747;33;20065;-38
2021/08/02 03:08:55;;;;;;;7.82;4.50;;;35.90;37.80;;;;;;4360607;32;20176;-38
2021/08/02 03:11:21;;;;;;;8.57;4.30;;;36.20;37.60;;;;;;4360722;32;20059;-36
2021/08/02 03:13:51;;;;;;;10.30;3.87;;;36.40;37.20;;;;;;4373312;32;20076;-37
2021/08/02 03:16:20;;;;;;;11.60;4.32;;;36.70;36.80;;;;;;4361372;32;20081;-39
2021/08/02 03:18:47;;;;;;;9.82;4.87;;;37.00;36.50;;;;;;4348372;32;20100;-38
2021/08/02 03:21:15;;;;;;;6.55;3.87;;;37.20;36.40;;;;;;4373025;32;20072;-37
2021/08/02 03:24:12;;;;;;;4.40;3.45;;;37.40;36.20;;;;;;4373178;32;20063;-37
2021/08/02 03:27:06;;;;;;;5.20;4.12;;;37.50;35.90;;;;;;4360453;32;20143;-37
2021/08/02 03:29:45;;;;;;;7.12;4.15;;;37.60;36.00;;;;;;4334394;32;20085;-38
2021/08/02 03:32:15;;;;;;;7.30;4.00;;;37.70;35.70;;;;;;4360959;32;20085;-37
2021/08/02 03:34:41;;;;;;;4.87;3.80;;;37.80;35.60;;;;;;4360784;32;20533;-38
2021/08/02 03:37:10;;;;;;;9.25;3.58;;;37.80;35.30;;;;;;4360692;32;20080;-37
2021/08/02 03:39:37;;;;;;;6.40;3.37;;;37.80;34.80;;;;;;4348098;32;20066;-36
2021/08/02 03:42:04;;;;;;;3.60;2.87;;;37.90;34.70;;;;;;4360183;32;20062;-37
2021/08/02 03:44:31;;;;;;;5.87;3.42;;;37.80;34.70;;;;;;4372834;32;20212;-38
2021/08/02 03:46:57;;;;;;;8.07;3.90;;;37.70;34.70;;;;;;4335145;33;20188;-38
2021/08/02 03:49:24;;;;;;;4.97;3.42;;;37.50;35.00;;;;;;4331858;33;20077;-39
2021/08/02 03:51:58;;;;;;;3.55;3.25;;;37.40;35.00;;;;;;4345348;32;20059;-38
2021/08/02 03:54:26;;;;;;;6.50;3.47;;;37.40;35.50;;;;;;4345589;32;20067;-39
2021/08/02 03:56:53;;;;;;;5.45;3.33;;;37.40;35.10;;;;;;4345412;32;20156;-37
2021/08/02 03:59:25;;;;;;;6.07;3.80;;;37.40;34.80;;;;;;4352518;32;20055;-37
2021/08/02 04:01:52;;;;;;;6.72;3.58;;;37.40;34.80;;;;;;4359965;32;20082;-37
2021/08/02 04:04:18;;;;;;;11.20;4.05;;;37.40;34.50;;;;;;4346080;32;20096;-38
2021/08/02 04:06:45;;;;;;;3.55;2.72;;;37.40;34.20;;;;;;4346215;32;20094;-38
2021/08/02 04:09:12;;;;;;;4.90;3.50;;;37.40;34.40;;;;;;4345922;32;20078;-38
2021/08/02 04:11:40;;;;;;;8.05;3.95;;;37.50;34.40;;;;;;4346081;32;20081;-37
2021/08/02 04:14:07;;;;;;;5.70;3.33;;;37.70;34.10;;;;;;4359506;32;20125;-38
2021/08/02 04:16:34;;;;;;;6.68;4.00;;;37.80;33.80;;;;;;4359096;32;20561;-38
2021/08/02 04:19:00;;;;;;;10.50;3.37;;;38.00;33.70;;;;;;4359984;32;20073;-37
2021/08/02 04:21:27;;;;;;;4.15;2.95;;;38.20;33.50;;;;;;4345971;32;20066;-38
2021/08/02 04:23:54;;;;;;;9.63;3.40;;;38.40;32.90;;;;;;4359715;32;20532;-37
2021/08/02 04:26:21;;;;;;;3.55;2.97;;;38.60;32.40;;;;;;4359606;32;20078;-37
2021/08/02 04:28:49;;;;;;;5.85;3.17;;;38.80;32.30;;;;;;4359294;32;20065;-38
2021/08/02 04:31:16;;;;;;;3.80;2.78;;;39.00;32.20;;;;;;4359962;32;20077;-37
2021/08/02 04:33:42;;;;;;;4.93;3.00;;;39.20;31.60;;;;;;4345362;32;20071;-37
2021/08/02 04:36:09;;;;;;;3.62;3.33;;;39.40;31.20;;;;;;4359662;32;20532;-38
2021/08/02 04:38:35;;;;;;;6.03;3.30;;;39.50;31.30;;;;;;4359585;32;20129;-38
2021/08/02 04:41:02;;;;;;;7.20;4.00;;;39.50;31.20;;;;;;4359525;32;20081;-39
2021/08/02 04:43:28;;;;;;;5.50;2.83;;;39.70;30.90;;;;;;4359631;32;20470;-38
2021/08/02 04:45:55;;;;;;;2.62;2.42;;;39.80;30.30;;;;;;4359299;32;20564;-38
2021/08/02 04:48:21;;;;;;;5.60;3.20;;;39.90;30.30;;;;;;4359119;32;20113;-38
2021/08/02 04:50:48;;;;;;;6.03;3.10;;;39.90;30.00;;;;;;4358477;32;20189;-37
2021/08/02 04:53:14;;;;;;;8.32;3.10;;;39.80;29.90;;;;;;4344457;32;20066;-37
2021/08/02 04:55:41;;;;;;;4.03;2.67;;;39.70;30.00;;;;;;4330604;33;20515;-38
2021/08/02 04:58:07;;;;;;;6.47;3.20;;;39.60;29.70;;;;;;4344276;33;20059;-38
2021/08/02 05:00:33;;;;;;;3.08;2.75;;;39.60;29.90;;;;;;4358555;32;20142;-37
2021/08/02 05:03:01;;;;;;;6.15;2.80;;;39.70;29.70;;;;;;4345286;32;20147;-39
2021/08/02 05:05:28;;;;;;;3.47;2.60;;;39.90;29.50;;;;;;4359373;32;20077;-38
2021/08/02 05:07:55;;;;;;;4.62;2.80;;;40.10;29.40;;;;;;4359371;32;20081;-37
2021/08/02 05:10:21;;;;;;;4.47;2.47;;;40.20;29.10;;;;;;4358724;32;20066;-38
2021/08/02 05:12:53;;;;;;;5.90;2.85;;;40.40;29.10;;;;;;4358949;32;20070;-38
2021/08/02 05:15:19;;;;;;;4.15;2.92;;;40.50;28.90;;;;;;4358762;32;20084;-37
2021/08/02 05:17:46;;;;;;;2.75;2.55;;;40.50;29.20;;;;;;4358904;32;20074;-38
2021/08/02 05:20:12;;;;;;;8.82;2.70;;;40.70;29.00;;;;;;4359061;32;20097;-38
2021/08/02 05:22:39;;;;;;;5.72;2.97;;;40.80;28.70;;;;;;4358894;32;20090;-38
2021/08/02 05:25:06;;;;;;;4.40;3.08;;;40.80;28.70;;;;;;4345064;32;20510;-39
2021/08/02 05:27:33;;;;;;;3.90;2.95;;;40.90;28.80;;;;;;4358466;32;20545;-38
2021/08/02 05:29:59;;;;;;;6.93;2.85;;;41.10;28.70;;;;;;4358832;32;20163;-39
2021/08/02 05:32:26;;;;;;;5.65;2.80;;;41.30;28.70;;;;;;4344976;32;20063;-39
2021/08/02 05:34:52;;;;;;;4.85;3.03;;;41.50;28.40;;;;;;4358571;32;20066;-38
2021/08/02 05:37:18;;;;;;;4.28;3.10;;;41.60;28.20;;;;;;4358341;32;20120;-38
2021/08/02 05:39:45;;;;;;;3.97;2.67;;;41.80;28.30;;;;;;4358285;32;20051;-37
2021/08/02 05:42:11;;;;;;;5.30;2.85;;;41.90;28.10;;;;;;4358576;32;20086;-38
2021/08/02 05:44:41;;;;;;;5.28;3.12;;;42.00;28.10;;;;;;4358186;32;20059;-37
2021/08/02 05:47:11;;;;;;;5.62;2.53;;;42.10;27.80;;;;;;4347334;32;20063;-40
2021/08/02 05:49:38;;;;;;;5.35;2.67;;;42.20;27.80;;;;;;4353343;32;20086;-37
2021/08/02 05:52:05;;;;;;;4.78;2.62;;;42.30;27.40;;;;;;4358536;32;20163;-37
2021/08/02 05:54:31;;;;;;;3.50;3.17;;;42.50;27.50;;;;;;4315225;33;20070;-41
2021/08/02 05:56:58;;;;;;;4.50;2.70;;;42.70;27.70;;;;;;4328804;33;20071;-39
2021/08/02 05:59:24;;;;;;;7.12;2.75;;;42.90;27.40;;;;;;4336094;33;20097;-38
2021/08/02 06:01:50;;;;;;;8.77;2.00;;;43.10;27.10;;;;;;4329642;33;20105;-38
2021/08/02 06:04:17;;;;;;;3.72;2.25;;;43.20;26.80;;;;;;4329643;33;20109;-38
2021/08/02 06:06:43;;;;;;;2.83;2.25;;;43.30;26.80;;;;;;4343412;33;20089;-37
2021/08/02 06:09:11;;;;;;;5.03;2.55;;;43.30;26.60;;;;;;4341570;33;20511;-37
2021/08/02 06:11:38;;;;;;;6.68;2.72;;;43.40;26.50;;;;;;4329736;33;20086;-37
2021/08/02 06:14:05;;;;;;;4.53;2.75;;;43.50;26.30;;;;;;4343391;33;20652;-38
2021/08/02 06:16:31;;;;;;;7.68;2.17;;;43.70;26.70;;;;;;4343091;32;20067;-38
2021/08/02 06:18:58;;;;;;;5.20;2.78;;;43.80;26.00;;;;;;4343417;33;20091;-38
2021/08/02 06:21:24;;;;;;;8.20;2.12;;;43.80;26.00;;;;;;4343528;33;20082;-38
2021/08/02 06:23:53;;;;;;;2.15;1.92;;;43.90;25.90;;;;;;4343274;33;20062;-38
2021/08/02 06:26:21;;;;;;;5.43;2.35;;;43.90;25.80;;;;;;4343099;33;20679;-38
2021/08/02 06:28:47;;;;;;;3.42;1.92;;;44.00;25.70;;;;;;4343056;33;20148;-39
2021/08/02 06:31:14;;;;;;;5.82;2.30;;;44.00;25.40;;;;;;4343108;33;20106;-47
2021/08/02 06:33:41;;;;;;;2.72;2.28;;;43.90;25.60;;;;;;4343148;33;20070;-38
2021/08/02 06:36:07;;;;;;;8.43;2.78;;;43.90;25.40;;;;;;4343121;33;20059;-37
2021/08/02 06:38:34;;;;;;;4.20;1.98;;;43.90;25.50;;;;;;4342975;33;20164;-40
2021/08/02 06:41:01;;;;;;;6.57;2.37;;;44.00;25.30;;;;;;4347306;32;20240;-38
2021/08/02 06:43:28;;;;;;;4.37;3.17;;;44.20;25.40;;;;;;4347856;33;20077;-38
2021/08/02 06:45:54;;;;;;;6.68;2.67;;;44.50;25.20;;;;;;4347748;33;20566;-38
2021/08/02 06:48:21;;;;;;;2.75;2.20;;;44.60;25.40;;;;;;4347810;33;20145;-38
2021/08/02 06:50:48;;;;;;;4.28;2.37;;;44.70;25.10;;;;;;4347825;33;20511;-39
2021/08/02 06:53:15;;;;;;;5.18;2.35;;;44.90;25.00;;;;;;4347961;33;20151;-39
2021/08/02 06:55:41;;;;;;;4.05;2.12;;;45.10;25.10;;;;;;4348167;33;20073;-39
2021/08/02 06:58:08;;;;;;;3.25;2.17;;;45.20;24.90;;;;;;4347685;33;20143;-39
2021/08/02 07:00:35;;;;;;;6.20;2.12;;;45.20;24.90;;;;;;4362562;32;20077;-38
2021/08/02 07:03:01;;;;;;;7.40;2.65;;;45.10;25.00;;;;;;4363461;32;20058;-39
2021/08/02 07:05:27;;;;;;;4.15;2.53;;;45.10;25.00;;;;;;4362819;32;20522;-37
2021/08/02 07:07:54;;;;;;;5.03;2.40;;;45.10;24.90;;;;;;4363141;32;20159;-39
2021/08/02 07:10:21;;;;;;;3.50;2.37;;;45.10;24.80;;;;;;4362582;32;20055;-39
2021/08/02 07:12:47;;;;;;;2.92;2.05;;;45.10;24.80;;;;;;4362498;32;20066;-39
2021/08/02 07:15:13;;;;;;;5.53;1.62;;;45.10;24.70;;;;;;4362636;32;20556;-38
2021/08/02 07:17:40;;;;;;;2.92;2.10;;;45.20;24.60;;;;;;4362404;32;20094;-39
2021/08/02 07:20:07;;;;;;;6.80;2.22;;;45.10;24.30;;;;;;4348913;32;20063;-40
2021/08/02 07:22:33;;;;;;;6.10;2.17;;;45.10;24.60;;;;;;4348635;32;20084;-39
2021/08/02 07:25:00;;;;;;;5.65;2.00;;;44.90;24.40;;;;;;4362873;32;20070;-39
2021/08/02 07:27:26;;;;;;;10.00;3.37;;;44.90;25.20;;;;;;4362649;32;20089;-39
2021/08/02 07:29:53;;;;;;;2.80;2.08;;;44.80;24.60;;;;;;4362710;32;20538;-40
2021/08/02 07:32:19;;;;;;;3.20;1.98;;;44.70;24.50;;;;;;4362759;32;20066;-38
2021/08/02 07:34:46;;;;;;;3.65;1.83;;;44.80;24.40;;;;;;4362785;32;20074;-39
2021/08/02 07:37:13;;;;;;;6.25;2.20;;;44.80;24.10;;;;;;4362678;32;20462;-40
2021/08/02 07:39:39;;;;;;;4.57;2.12;;;44.70;24.10;;;;;;4362765;32;20596;-39
2021/08/02 07:42:06;;;;;;;4.00;1.85;;;44.70;23.90;;;;;;4354588;32;20149;-39
2021/08/02 07:44:32;;;;;;;4.15;2.45;;;44.70;23.80;;;;;;4333568;33;20067;-39
2021/08/02 07:47:00;;;;;;;8.68;2.70;;;44.60;23.60;;;;;;4347570;33;20496;-39
2021/08/02 07:49:26;;;;;;;3.97;1.60;;;44.50;23.30;;;;;;4347616;33;20055;-39
2021/08/02 07:51:52;;;;;;;6.40;1.83;;;44.30;23.30;;;;;;4346085;33;20066;-39
2021/08/02 07:54:19;;;;;;;4.25;1.42;;;44.30;23.00;;;;;;4331467;33;20097;-39
2021/08/02 07:56:46;;;;;;;2.50;2.05;;;44.30;23.20;;;;;;4345448;33;20063;-38
2021/08/02 07:59:12;;;;;;;6.75;1.98;;;44.30;23.10;;;;;;4351356;32;20082;-39
2021/08/02 08:01:38;;;;;;;7.35;2.45;;;44.40;23.00;;;;;;4360141;32;20061;-39
2021/08/02 08:04:05;;;;;;;2.92;1.52;;;44.50;23.20;;;;;;4360007;32;20552;-39
2021/08/02 08:06:31;;;;;;;7.53;1.60;;;44.50;23.00;;;;;;4359632;32;20092;-38
2021/08/02 08:08:58;;;;;;;4.78;2.20;;;44.60;22.90;;;;;;4359501;32;20067;-38
2021/08/02 08:11:24;;;;;;;3.60;1.58;;;44.60;23.00;;;;;;4359639;32;20163;-38
2021/08/02 08:13:51;;;;;;;4.43;2.08;;;44.70;23.60;;;;;;4359736;32;20147;-39
2021/08/02 08:16:17;;;;;;;2.22;1.70;;;44.90;22.90;;;;;;4345611;32;20088;-39
2021/08/02 08:18:44;;;;;;;3.28;1.50;;;45.20;22.70;;;;;;4359616;32;20202;-38
2021/08/02 08:21:10;;;;;;;13.80;1.75;;;45.60;22.60;;;;;;4359552;32;20085;-39
2021/08/02 08:23:37;;;;;;;2.72;1.70;;;46.10;22.20;;;;;;4359775;32;20486;-39
2021/08/02 08:26:03;;;;;;;3.80;1.70;;;46.60;22.30;;;;;;4359553;32;20085;-38
2021/08/02 08:28:30;;;;;;;4.75;1.70;;;46.90;21.80;;;;;;4359279;32;20098;-39
2021/08/02 08:30:56;;;;;;;5.62;2.90;;;47.10;21.40;;;;;;4359344;32;20142;-38
2021/08/02 08:33:29;;;;;;;1.83;1.45;;;47.40;21.60;;;;;;4359565;32;20073;-38
2021/08/02 08:35:56;;;;;;;5.80;1.37;;;47.80;21.60;;;;;;4359332;32;20088;-39
2021/08/02 08:38:23;;;;;;;5.07;1.67;;;48.20;21.50;;;;;;4359573;32;20058;-39
2021/08/02 08:40:49;;;;;;;3.70;1.50;;;48.30;21.70;;;;;;4359564;32;20104;-38
2021/08/02 08:43:18;;;;;;;1.70;1.33;;;48.30;21.50;;;;;;4297561;33;20071;-38
2021/08/02 08:45:45;;;;;;;2.05;1.83;;;48.40;21.40;;;;;;4298203;33;20157;-39
2021/08/02 08:48:11;;;;;;;3.55;1.73;;;48.50;21.50;;;;;;4297834;33;20078;-39
2021/08/02 08:50:39;;;;;;;3.30;1.65;;;48.60;21.40;;;;;;4298331;33;20174;-39
2021/08/02 08:53:07;;;;;;;2.00;1.40;;;48.60;21.60;;;;;;4285786;33;20142;-40
2021/08/02 08:55:34;;;;;;;1.87;1.37;;;48.50;21.50;;;;;;4298133;33;20158;-39
2021/08/02 08:58:03;;;;;;;5.03;2.45;;;48.50;21.70;;;;;;4285894;33;20175;-38
2021/08/02 09:00:30;;;;;;;3.90;1.60;;;48.60;21.60;;;;;;4311398;33;20075;-38
2021/08/02 09:02:56;;;;;;;6.25;1.52;;;48.60;21.50;;;;;;4312281;33;20500;-38
2021/08/02 09:05:43;;;;;;;2.30;1.30;;;48.70;21.50;;;;;;4312506;33;20657;-39
2021/08/02 09:08:17;;;;;;;4.70;1.77;;;48.60;21.50;;;;;;4312639;33;20590;-38
2021/08/02 09:10:58;;;;;;;3.97;1.80;;;48.30;21.50;;;;;;4312603;33;20135;-38
2021/08/02 09:13:33;;;;;;;4.68;1.58;;;48.00;21.60;;;;;;4308592;32;20134;-38
2021/08/02 09:16:13;;;;;;;8.85;1.73;;;47.80;21.70;;;;;;4358911;32;20544;-38
2021/08/02 09:18:40;;;;;;;3.45;1.33;;;47.60;21.70;;;;;;4347081;32;20256;-39
2021/08/02 09:21:07;;;;;;;2.42;1.60;;;47.40;21.80;;;;;;4345141;32;20069;-38
2021/08/02 09:23:34;;;;;;;4.85;1.52;;;47.30;21.80;;;;;;4358686;32;20482;-39
2021/08/02 09:26:01;;;;;;;2.53;1.52;;;47.20;21.60;;;;;;4358834;32;20078;-38
2021/08/02 09:28:28;;;;;;;1.98;1.30;;;47.40;21.80;;;;;;4358286;32;20554;-39
2021/08/02 09:31:03;;;;;;;4.40;1.60;;;47.50;21.50;;;;;;4358911;32;20082;-38
2021/08/02 09:33:43;;;;;;;3.30;1.40;;;47.60;21.50;;;;;;4358951;32;20070;-38
2021/08/02 09:36:10;;;;;;;3.03;1.85;;;47.60;21.20;;;;;;4359098;32;20066;-39
2021/08/02 09:38:36;;;;;;;2.90;1.48;;;47.50;21.40;;;;;;4344825;32;20059;-39
2021/08/02 09:41:03;;;;;;;1.40;1.30;;;47.40;21.30;;;;;;4344119;32;20447;-39
2021/08/02 09:43:33;;;;;;;2.80;1.55;;;47.40;21.40;;;;;;4358185;32;20590;-39
2021/08/02 09:46:02;;;;;;;1.98;1.50;;;47.30;21.50;;;;;;4358484;32;20534;-38
2021/08/02 09:48:42;;;;;;;4.55;1.60;;;47.40;21.30;;;;;;4358164;32;20159;-38
2021/08/02 09:51:16;;;;;;;4.50;1.45;;;47.40;21.30;;;;;;4358635;32;20606;-39
2021/08/02 09:53:47;;;;;;;5.80;1.62;;;47.60;21.20;;;;;;4358704;32;20110;-39
2021/08/02 09:56:24;;;;;;;2.00;1.23;;;47.70;21.00;;;;;;4358766;32;20144;-39
2021/08/02 09:58:51;;;;;;;1.65;1.50;;;47.50;21.10;;;;;;4358372;32;20541;-39
2021/08/02 10:01:19;;;;;;;1.48;1.37;;;47.50;21.20;;;;;;4344785;32;20070;-39
2021/08/02 10:03:46;;;;;;;3.87;1.20;;;47.60;21.50;;;;;;4344858;32;20168;-40
2021/08/02 10:06:14;;;;;;;5.80;1.83;;;47.90;21.00;;;;;;4358561;32;20050;-39
2021/08/02 10:08:40;;;;;;;2.25;1.40;;;48.10;20.80;;;;;;4358489;32;20137;-39
2021/08/02 10:11:07;;;;;;;5.70;1.90;;;48.30;20.50;;;;;;4344491;32;20547;-39
2021/08/02 10:13:43;;;;;;;3.87;1.30;;;48.40;20.60;;;;;;4358438;32;20155;-38
2021/08/02 10:16:25;;;;;;;2.45;1.60;;;48.40;20.70;;;;;;4331659;32;20069;-39
2021/08/02 10:18:52;;;;;;;5.05;2.03;;;48.40;20.70;;;;;;4345104;32;20071;-41
2021/08/02 10:21:19;;;;;;;2.53;2.33;;;48.40;20.50;;;;;;4358105;32;20066;-37
2021/08/02 10:23:46;;;;;;;1.98;1.77;;;48.20;20.50;;;;;;4344676;32;20062;-39
2021/08/02 10:26:28;;;;;;;4.65;1.62;;;48.20;20.60;;;;;;4358950;32;20069;-37
2021/08/02 10:29:03;;;;;;;2.33;1.77;;;48.30;20.70;;;;;;4358301;32;20089;-39
2021/08/02 10:31:44;;;;;;;3.95;1.80;;;48.30;20.40;;;;;;4356778;32;20530;-37
2021/08/02 10:34:37;;;;;;;3.00;1.30;;;48.20;20.50;;;;;;4358256;32;20074;-38
2021/08/02 10:37:05;;;;;;;1.85;1.30;;;48.00;20.50;;;;;;4341791;32;20538;-38
2021/08/02 10:39:34;;;;;;;4.57;1.58;;;47.70;20.50;;;;;;4358036;32;20066;-39
2021/08/02 10:42:18;;;;;;;5.55;1.60;;;47.50;20.70;;;;;;4350260;32;20129;-38
2021/08/02 10:44:54;;;;;;;5.35;1.52;;;47.20;20.80;;;;;;4343369;32;20135;-38
2021/08/02 10:47:21;;;;;;;1.70;1.27;;;47.10;20.90;;;;;;4343342;32;20082;-38
2021/08/02 10:49:52;;;;;;;3.97;1.52;;;47.10;20.90;;;;;;4342905;33;20610;-39
2021/08/02 10:52:29;;;;;;;6.78;1.25;;;47.10;20.90;;;;;;4343211;32;20171;-39
2021/08/02 10:54:56;;;;;;;3.00;1.55;;;47.20;21.10;;;;;;4342881;33;20055;-39
2021/08/02 10:57:23;;;;;;;3.47;1.42;;;47.20;21.00;;;;;;4329532;33;20073;-39
2021/08/02 10:59:49;;;;;;;1.80;1.27;;;47.20;21.10;;;;;;4338659;32;20615;-38
2021/08/02 11:02:16;;;;;;;3.70;1.50;;;47.20;20.90;;;;;;4344402;32;20148;-38
2021/08/02 11:04:42;;;;;;;3.65;1.12;;;47.20;21.50;;;;;;4357933;32;20069;-38
2021/08/02 11:07:09;;;;;;;1.83;1.70;;;47.40;21.10;;;;;;4357734;32;20173;-38
2021/08/02 11:09:36;;;;;;;3.33;1.27;;;47.70;20.90;;;;;;4357564;32;20085;-38
2021/08/02 11:12:09;;;;;;;2.45;1.45;;;48.10;20.70;;;;;;4357615;32;20166;-38
2021/08/02 11:14:52;;;;;;;1.85;1.33;;;48.50;20.70;;;;;;4344129;32;20194;-38
2021/08/02 11:17:21;;;;;;;6.25;2.00;;;48.60;20.60;;;;;;4357933;32;20569;-39
2021/08/02 11:19:47;;;;;;;3.15;1.25;;;48.90;20.70;;;;;;4332140;32;20051;-38
2021/08/02 11:22:15;;;;;;;4.18;1.48;;;48.80;20.40;;;;;;4357337;32;21058;-38
2021/08/02 11:24:53;;;;;;;3.53;1.55;;;48.90;20.40;;;;;;4357925;32;20086;-39
2021/08/02 11:27:19;;;;;;;3.58;1.40;;;49.10;20.30;;;;;;4360307;32;20094;-38
2021/08/02 11:29:51;;;;;;;2.12;1.20;;;48.90;20.30;;;;;;4358874;32;20551;-38
2021/08/02 11:32:20;;;;;;;1.40;1.30;;;48.90;20.40;;;;;;4360803;32;20147;-38
2021/08/02 11:35:01;;;;;;;2.03;1.25;;;48.90;20.40;;;;;;4360607;32;20074;-37
2021/08/02 11:37:28;;;;;;;3.75;1.50;;;48.90;20.40;;;;;;4360246;32;20071;-39
2021/08/02 11:40:03;;;;;;;6.25;1.40;;;48.90;20.30;;;;;;4360369;32;20063;-38
2021/08/02 11:42:30;;;;;;;3.00;1.37;;;48.90;20.40;;;;;;4349457;32;20530;-39
2021/08/02 11:44:57;;;;;;;1.67;1.10;;;48.90;20.30;;;;;;4345522;33;20069;-39
2021/08/02 11:47:29;;;;;;;2.50;1.45;;;49.00;20.30;;;;;;4331620;33;20082;-39
2021/08/02 11:49:56;;;;;;;1.90;1.48;;;49.10;20.20;;;;;;4345521;33;20074;-39
2021/08/02 11:52:24;;;;;;;2.33;1.80;;;49.00;20.10;;;;;;4331529;33;20170;-40
2021/08/02 11:55:02;;;;;;;2.25;1.60;;;48.70;20.30;;;;;;4345413;33;20101;-38
2021/08/02 11:57:28;;;;;;;3.12;1.75;;;48.40;20.50;;;;;;4331304;33;20145;-38
2021/08/02 12:00:15;;;;;;;2.17;1.85;;;48.20;20.50;;;;;;4355246;32;20089;-38
2021/08/02 12:02:43;;;;;;;1.60;1.48;;;48.30;20.60;;;;;;4360117;32;20080;-39
2021/08/02 12:05:24;;;;;;;5.18;1.40;;;48.50;20.60;;;;;;4359715;32;20078;-39
2021/08/02 12:07:51;;;;;;;2.33;1.60;;;48.50;20.50;;;;;;4359769;32;20050;-39
2021/08/02 12:10:24;;;;;;;1.98;1.33;;;48.40;20.50;;;;;;4359827;32;20073;-39
2021/08/02 12:13:05;;;;;;;3.22;1.83;;;48.20;20.70;;;;;;4359860;32;20070;-38
2021/08/02 12:15:33;;;;;;;5.18;2.10;;;48.00;20.60;;;;;;4359626;32;20055;-39
2021/08/02 12:17:59;;;;;;;1.67;1.42;;;47.80;20.70;;;;;;4359745;32;20070;-38
2021/08/02 12:20:36;;;;;;;5.40;1.70;;;47.80;20.70;;;;;;4346026;32;20062;-39
2021/08/02 12:23:05;;;;;;;5.05;1.45;;;48.00;21.00;;;;;;4359641;32;20081;-38
2021/08/02 12:25:35;;;;;;;4.12;1.60;;;48.10;20.90;;;;;;4359432;32;20158;-40
2021/08/02 12:28:02;;;;;;;3.08;1.67;;;48.20;20.80;;;;;;4359888;32;20563;-37
2021/08/02 12:30:28;;;;;;;7.70;1.70;;;48.30;20.80;;;;;;4345775;32;20088;-39
2021/08/02 12:32:55;;;;;;;3.28;1.52;;;48.40;20.70;;;;;;4359873;32;20054;-38
2021/08/02 12:35:21;;;;;;;3.97;1.80;;;48.30;20.70;;;;;;4359580;32;20447;-38
2021/08/02 12:37:48;;;;;;;1.95;1.40;;;48.00;20.80;;;;;;4358459;32;20136;-38
2021/08/02 12:40:16;;;;;;;4.70;1.58;;;47.80;21.10;;;;;;4359083;32;20102;-38
2021/08/02 12:42:47;;;;;;;4.50;1.55;;;47.80;21.10;;;;;;4331145;33;20440;-37
2021/08/02 12:45:15;;;;;;;2.87;1.62;;;48.00;21.20;;;;;;4329297;33;20141;-39
2021/08/02 12:47:42;;;;;;;4.03;1.33;;;48.00;21.00;;;;;;4329805;33;20091;-38
2021/08/02 12:50:10;;;;;;;3.75;1.95;;;47.90;21.00;;;;;;4328055;33;20096;-38
2021/08/02 12:52:37;;;;;;;3.40;1.33;;;47.80;21.10;;;;;;4329579;33;20066;-39
2021/08/02 12:55:05;;;;;;;4.93;2.65;;;47.60;21.20;;;;;;4329837;33;20055;-39
2021/08/02 12:57:34;;;;;;;2.12;1.40;;;47.50;21.40;;;;;;4329222;33;20577;-38